sensor_id;sensor_type;location;lat;lon;timestamp;pressure;altitude;pressure_sealevel;temperature;humidity
7180;BME280;3631;42.152;24.756;2022-09-20T00:00:30;99282.38;;;15.60;68.07
7180;BME280;3631;42.152;24.756;2022-09-20T00:02:57;99272.09;;;15.57;68.19
7180;BME280;3631;42.152;24.756;2022-09-20T00:05:24;99274.38;;;15.64;68.48
7180;BME280;3631;42.152;24.756;2022-09-20T00:07:53;99274.44;;;15.62;67.70
7180;BME280;3631;42.152;24.756;2022-09-20T00:10:20;99275.47;;;15.59;68.32
7180;BME280;3631;42.152;24.756;2022-09-20T00:12:49;99268.63;;;15.57;68.38
7180;BME280;3631;42.152;24.756;2022-09-20T00:15:16;99269.56;;;15.56;67.71
7180;BME280;3631;42.152;24.756;2022-09-20T00:17:42;99270.50;;;15.55;68.41
7180;BME280;3631;42.152;24.756;2022-09-20T00:20:09;99269.56;;;15.56;68.32
7180;BME280;3631;42.152;24.756;2022-09-20T00:22:36;99270.16;;;15.61;67.71
7180;BME280;3631;42.152;24.756;2022-09-20T00:25:06;99254.53;;;15.59;68.15
7180;BME280;3631;42.152;24.756;2022-09-20T00:27:33;99260.78;;;15.57;68.08
7180;BME280;3631;42.152;24.756;2022-09-20T00:30:00;99271.25;;;15.57;67.62
7180;BME280;3631;42.152;24.756;2022-09-20T00:32:27;99262.56;;;15.56;68.33
7180;BME280;3631;42.152;24.756;2022-09-20T00:34:54;99268.75;;;15.54;68.21
7180;BME280;3631;42.152;24.756;2022-09-20T00:37:32;99262.56;;;15.56;67.98
7180;BME280;3631;42.152;24.756;2022-09-20T00:39:59;99258.44;;;15.51;67.72
7180;BME280;3631;42.152;24.756;2022-09-20T00:42:28;99265.53;;;15.49;68.46
7180;BME280;3631;42.152;24.756;2022-09-20T00:44:57;99259.53;;;15.47;68.21
7180;BME280;3631;42.152;24.756;2022-09-20T00:47:32;99265.72;;;15.46;68.64
7180;BME280;3631;42.152;24.756;2022-09-20T00:50:12;99267.38;;;15.47;68.99
7180;BME280;3631;42.152;24.756;2022-09-20T00:52:41;99266.63;;;15.45;69.03
7180;BME280;3631;42.152;24.756;2022-09-20T00:55:10;99268.47;;;15.43;69.13
7180;BME280;3631;42.152;24.756;2022-09-20T00:57:38;99276.25;;;15.44;69.24
7180;BME280;3631;42.152;24.756;2022-09-20T01:00:07;99264.19;;;15.42;68.86
7180;BME280;3631;42.152;24.756;2022-09-20T01:02:37;99267.94;;;15.36;69.56
7180;BME280;3631;42.152;24.756;2022-09-20T01:05:06;99253.94;;;15.37;69.83
7180;BME280;3631;42.152;24.756;2022-09-20T01:07:34;99261.56;;;15.42;70.07
7180;BME280;3631;42.152;24.756;2022-09-20T01:10:01;99258.31;;;15.37;70.20
7180;BME280;3631;42.152;24.756;2022-09-20T01:12:31;99263.81;;;15.32;70.89
7180;BME280;3631;42.152;24.756;2022-09-20T01:15:02;99252.81;;;15.25;71.55
7180;BME280;3631;42.152;24.756;2022-09-20T01:17:32;99251.75;;;15.30;71.70
7180;BME280;3631;42.152;24.756;2022-09-20T01:20:16;99262.34;;;15.26;71.96
7180;BME280;3631;42.152;24.756;2022-09-20T01:22:57;99252.53;;;15.14;73.02
7180;BME280;3631;42.152;24.756;2022-09-20T01:25:40;99256.06;;;15.13;73.21
7180;BME280;3631;42.152;24.756;2022-09-20T01:28:12;99253.78;;;15.07;73.57
7180;BME280;3631;42.152;24.756;2022-09-20T01:30:42;99251.31;;;15.04;74.17
7180;BME280;3631;42.152;24.756;2022-09-20T01:33:15;99253.31;;;14.99;74.35
7180;BME280;3631;42.152;24.756;2022-09-20T01:35:48;99252.31;;;15.02;73.99
7180;BME280;3631;42.152;24.756;2022-09-20T01:38:26;99253.06;;;15.04;74.05
7180;BME280;3631;42.152;24.756;2022-09-20T01:41:02;99252.31;;;15.02;74.42
7180;BME280;3631;42.152;24.756;2022-09-20T01:43:39;99238.09;;;14.90;73.52
7180;BME280;3631;42.152;24.756;2022-09-20T01:46:19;99256.88;;;14.98;73.69
7180;BME280;3631;42.152;24.756;2022-09-20T01:48:50;99255.94;;;14.99;73.75
7180;BME280;3631;42.152;24.756;2022-09-20T01:51:35;99261.16;;;14.99;73.74
7180;BME280;3631;42.152;24.756;2022-09-20T01:54:28;99258.56;;;14.99;74.16
7180;BME280;3631;42.152;24.756;2022-09-20T02:00:11;99257.72;;;14.99;73.38
7180;BME280;3631;42.152;24.756;2022-09-20T02:06:05;99263.94;;;14.96;72.83
7180;BME280;3631;42.152;24.756;2022-09-20T02:08:55;99274.78;;;14.88;73.48
7180;BME280;3631;42.152;24.756;2022-09-20T02:11:39;99271.09;;;14.75;73.37
7180;BME280;3631;42.152;24.756;2022-09-20T02:14:29;99280.53;;;14.78;73.41
7180;BME280;3631;42.152;24.756;2022-09-20T02:17:09;99280.53;;;14.78;72.97
7180;BME280;3631;42.152;24.756;2022-09-20T02:20:06;99230.19;;;14.40;73.16
7180;BME280;3631;42.152;24.756;2022-09-20T02:22:42;99273.38;;;14.64;72.86
7180;BME280;3631;42.152;24.756;2022-09-20T02:25:19;99280.66;;;14.58;72.48
7180;BME280;3631;42.152;24.756;2022-09-20T02:28:02;99253.47;;;14.44;72.75
7180;BME280;3631;42.152;24.756;2022-09-20T02:30:37;99269.66;;;14.51;72.03
7180;BME280;3631;42.152;24.756;2022-09-20T02:36:09;99271.44;;;14.50;71.31
7180;BME280;3631;42.152;24.756;2022-09-20T02:38:52;99272.34;;;14.49;71.68
7180;BME280;3631;42.152;24.756;2022-09-20T02:41:42;99283.63;;;14.50;71.55
7180;BME280;3631;42.152;24.756;2022-09-20T02:44:17;99284.69;;;14.46;71.06
7180;BME280;3631;42.152;24.756;2022-09-20T02:46:53;99282.31;;;14.41;71.01
7180;BME280;3631;42.152;24.756;2022-09-20T02:49:28;99265.91;;;14.21;71.18
7180;BME280;3631;42.152;24.756;2022-09-20T02:52:03;99297.63;;;14.30;71.37
7180;BME280;3631;42.152;24.756;2022-09-20T02:54:41;99291.75;;;14.25;71.83
7180;BME280;3631;42.152;24.756;2022-09-20T02:57:16;99292.13;;;14.17;71.77
7180;BME280;3631;42.152;24.756;2022-09-20T02:59:51;99279.59;;;14.07;72.28
7180;BME280;3631;42.152;24.756;2022-09-20T03:02:25;99302.28;;;14.24;71.45
7180;BME280;3631;42.152;24.756;2022-09-20T03:05:08;99309.19;;;14.25;71.19
7180;BME280;3631;42.152;24.756;2022-09-20T03:07:48;99310.81;;;14.27;71.13
7180;BME280;3631;42.152;24.756;2022-09-20T03:10:24;99306.94;;;14.17;71.36
7180;BME280;3631;42.152;24.756;2022-09-20T03:13:01;99302.72;;;14.14;71.84
7180;BME280;3631;42.152;24.756;2022-09-20T03:15:42;99314.00;;;14.15;72.07
7180;BME280;3631;42.152;24.756;2022-09-20T03:18:15;99315.03;;;14.11;72.30
7180;BME280;3631;42.152;24.756;2022-09-20T03:20:54;99327.19;;;14.12;72.13
7180;BME280;3631;42.152;24.756;2022-09-20T03:23:39;99320.84;;;13.99;73.41
7180;BME280;3631;42.152;24.756;2022-09-20T03:26:19;99308.72;;;13.98;73.48
7180;BME280;3631;42.152;24.756;2022-09-20T03:28:57;99315.00;;;13.94;73.28
7180;BME280;3631;42.152;24.756;2022-09-20T03:31:51;99317.47;;;13.97;73.10
7180;BME280;3631;42.152;24.756;2022-09-20T03:34:36;99325.22;;;13.98;72.54
7180;BME280;3631;42.152;24.756;2022-09-20T03:37:22;99320.94;;;13.97;73.07
7180;BME280;3631;42.152;24.756;2022-09-20T03:40:18;99309.91;;;13.91;73.21
7180;BME280;3631;42.152;24.756;2022-09-20T03:42:51;99314.06;;;13.95;73.24
7180;BME280;3631;42.152;24.756;2022-09-20T03:45:43;99322.81;;;13.94;73.42
7180;BME280;3631;42.152;24.756;2022-09-20T03:48:41;99334.16;;;13.93;73.78
7180;BME280;3631;42.152;24.756;2022-09-20T03:51:21;99312.88;;;14.02;73.18
7180;BME280;3631;42.152;24.756;2022-09-20T03:54:26;99315.72;;;13.97;72.82
7180;BME280;3631;42.152;24.756;2022-09-20T03:57:11;99323.72;;;13.93;72.92
7180;BME280;3631;42.152;24.756;2022-09-20T03:59:56;99317.13;;;13.86;73.13
7180;BME280;3631;42.152;24.756;2022-09-20T04:02:38;99317.13;;;13.86;72.78
7180;BME280;3631;42.152;24.756;2022-09-20T04:05:14;99336.06;;;13.89;73.16
7180;BME280;3631;42.152;24.756;2022-09-20T04:07:52;99320.50;;;13.88;73.28
7180;BME280;3631;42.152;24.756;2022-09-20T04:10:33;99336.84;;;13.91;74.13
7180;BME280;3631;42.152;24.756;2022-09-20T04:13:14;99333.53;;;13.88;73.96
7180;BME280;3631;42.152;24.756;2022-09-20T04:15:55;99328.88;;;13.75;74.82
7180;BME280;3631;42.152;24.756;2022-09-20T04:18:32;99338.75;;;13.88;74.83
7180;BME280;3631;42.152;24.756;2022-09-20T04:21:05;99333.25;;;13.75;74.95
7180;BME280;3631;42.152;24.756;2022-09-20T04:23:41;99350.13;;;13.87;74.88
7180;BME280;3631;42.152;24.756;2022-09-20T04:26:14;99353.41;;;13.90;74.90
7180;BME280;3631;42.152;24.756;2022-09-20T04:28:46;99327.75;;;13.81;74.90
7180;BME280;3631;42.152;24.756;2022-09-20T04:31:22;99350.47;;;13.98;74.47
7180;BME280;3631;42.152;24.756;2022-09-20T04:33:54;99345.81;;;14.04;74.55
7180;BME280;3631;42.152;24.756;2022-09-20T04:36:35;99354.44;;;14.06;74.82
7180;BME280;3631;42.152;24.756;2022-09-20T04:39:10;99357.22;;;14.02;74.71
7180;BME280;3631;42.152;24.756;2022-09-20T04:42:14;99360.56;;;14.05;74.73
7180;BME280;3631;42.152;24.756;2022-09-20T04:45:16;99370.16;;;14.05;74.32
7180;BME280;3631;42.152;24.756;2022-09-20T04:48:35;99366.19;;;14.15;73.83
7180;BME280;3631;42.152;24.756;2022-09-20T04:51:38;99365.50;;;14.30;72.56
7180;BME280;3631;42.152;24.756;2022-09-20T04:57:39;99380.38;;;14.28;71.39
7180;BME280;3631;42.152;24.756;2022-09-20T05:00:15;99381.31;;;14.46;70.21
7180;BME280;3631;42.152;24.756;2022-09-20T05:03:22;99387.59;;;14.61;69.09
7180;BME280;3631;42.152;24.756;2022-09-20T05:06:12;99390.34;;;14.76;68.57
7180;BME280;3631;42.152;24.756;2022-09-20T05:09:04;99396.03;;;14.84;67.78
7180;BME280;3631;42.152;24.756;2022-09-20T05:11:54;99387.78;;;15.28;66.82
7180;BME280;3631;42.152;24.756;2022-09-20T05:14:39;99392.94;;;16.30;62.70
7180;BME280;3631;42.152;24.756;2022-09-20T05:17:20;99386.09;;;18.08;55.92
7180;BME280;3631;42.152;24.756;2022-09-20T05:20:04;99387.53;;;20.01;49.67
7180;BME280;3631;42.152;24.756;2022-09-20T05:22:58;99389.28;;;21.57;44.86
7180;BME280;3631;42.152;24.756;2022-09-20T05:25:50;99400.84;;;23.01;41.74
7180;BME280;3631;42.152;24.756;2022-09-20T05:28:26;99395.00;;;24.22;39.01
7180;BME280;3631;42.152;24.756;2022-09-20T05:31:02;99391.69;;;24.09;38.33
7180;BME280;3631;42.152;24.756;2022-09-20T05:33:36;99397.13;;;22.70;40.89
7180;BME280;3631;42.152;24.756;2022-09-20T05:36:09;99401.19;;;21.04;43.71
7180;BME280;3631;42.152;24.756;2022-09-20T05:38:46;99392.03;;;19.99;46.33
7180;BME280;3631;42.152;24.756;2022-09-20T05:41:22;99372.97;;;19.05;48.61
7180;BME280;3631;42.152;24.756;2022-09-20T05:44:04;99387.75;;;18.52;50.76
7180;BME280;3631;42.152;24.756;2022-09-20T05:46:44;99392.69;;;18.01;52.63
7180;BME280;3631;42.152;24.756;2022-09-20T05:49:22;99397.84;;;18.03;53.10
7180;BME280;3631;42.152;24.756;2022-09-20T05:52:10;99406.19;;;18.38;52.21
7180;BME280;3631;42.152;24.756;2022-09-20T05:54:58;99422.72;;;18.95;50.93
7180;BME280;3631;42.152;24.756;2022-09-20T05:57:45;99422.00;;;19.06;50.40
7180;BME280;3631;42.152;24.756;2022-09-20T06:00:19;99425.34;;;19.87;48.47
7180;BME280;3631;42.152;24.756;2022-09-20T06:02:55;99421.97;;;20.36;46.42
7180;BME280;3631;42.152;24.756;2022-09-20T06:05:31;99427.31;;;20.59;46.11
7180;BME280;3631;42.152;24.756;2022-09-20T06:08:25;99430.09;;;20.45;46.34
7180;BME280;3631;42.152;24.756;2022-09-20T06:11:03;99426.53;;;20.08;46.92
7180;BME280;3631;42.152;24.756;2022-09-20T06:13:43;99424.31;;;19.37;48.69
7180;BME280;3631;42.152;24.756;2022-09-20T06:16:17;99420.13;;;18.67;49.96
7180;BME280;3631;42.152;24.756;2022-09-20T06:18:59;99415.47;;;18.29;51.26
7180;BME280;3631;42.152;24.756;2022-09-20T06:21:37;99414.56;;;18.16;51.26
7180;BME280;3631;42.152;24.756;2022-09-20T06:24:18;99424.00;;;18.19;51.42
7180;BME280;3631;42.152;24.756;2022-09-20T06:26:49;99399.69;;;17.87;51.83
7180;BME280;3631;42.152;24.756;2022-09-20T06:29:25;99418.88;;;17.59;52.61
7180;BME280;3631;42.152;24.756;2022-09-20T06:31:54;99425.38;;;17.37;53.49
7180;BME280;3631;42.152;24.756;2022-09-20T06:34:23;99428.72;;;17.39;53.76
7180;BME280;3631;42.152;24.756;2022-09-20T06:36:59;99421.34;;;17.16;54.09
7180;BME280;3631;42.152;24.756;2022-09-20T06:39:52;99439.88;;;17.13;54.42
7180;BME280;3631;42.152;24.756;2022-09-20T06:42:40;99440.38;;;17.20;53.85
7180;BME280;3631;42.152;24.756;2022-09-20T06:45:09;99440.13;;;17.24;53.32
7180;BME280;3631;42.152;24.756;2022-09-20T06:47:36;99440.41;;;17.04;53.17
7180;BME280;3631;42.152;24.756;2022-09-20T06:50:05;99452.31;;;17.10;52.91
7180;BME280;3631;42.152;24.756;2022-09-20T06:52:33;99446.47;;;17.20;52.22
7180;BME280;3631;42.152;24.756;2022-09-20T06:55:00;99422.84;;;17.50;51.95
7180;BME280;3631;42.152;24.756;2022-09-20T06:57:34;99441.16;;;17.82;50.78
7180;BME280;3631;42.152;24.756;2022-09-20T07:00:03;99462.09;;;19.36;47.43
7180;BME280;3631;42.152;24.756;2022-09-20T07:02:30;99465.59;;;21.73;42.45
7180;BME280;3631;42.152;24.756;2022-09-20T07:04:57;99467.53;;;23.27;38.68
7180;BME280;3631;42.152;24.756;2022-09-20T07:07:25;99460.84;;;23.55;37.14
7180;BME280;3631;42.152;24.756;2022-09-20T07:09:52;99470.00;;;23.51;37.01
7180;BME280;3631;42.152;24.756;2022-09-20T07:12:19;99464.03;;;24.42;35.07
7180;BME280;3631;42.152;24.756;2022-09-20T07:14:46;99458.56;;;25.43;33.43
7180;BME280;3631;42.152;24.756;2022-09-20T07:17:15;99463.31;;;26.81;31.09
7180;BME280;3631;42.152;24.756;2022-09-20T07:19:41;99468.41;;;27.55;29.81
7180;BME280;3631;42.152;24.756;2022-09-20T07:22:08;99472.38;;;27.86;29.71
7180;BME280;3631;42.152;24.756;2022-09-20T07:24:37;99473.84;;;27.80;29.73
7180;BME280;3631;42.152;24.756;2022-09-20T07:27:05;99462.91;;;26.48;31.00
7180;BME280;3631;42.152;24.756;2022-09-20T07:29:32;99465.56;;;24.75;33.07
7180;BME280;3631;42.152;24.756;2022-09-20T07:32:01;99463.44;;;23.66;34.79
7180;BME280;3631;42.152;24.756;2022-09-20T07:34:28;99457.16;;;22.70;36.06
7180;BME280;3631;42.152;24.756;2022-09-20T07:36:56;99466.38;;;23.52;35.21
7180;BME280;3631;42.152;24.756;2022-09-20T07:39:24;99440.09;;;25.12;32.66
7180;BME280;3631;42.152;24.756;2022-09-20T07:41:52;99469.81;;;26.41;30.88
7180;BME280;3631;42.152;24.756;2022-09-20T07:44:19;99472.38;;;27.86;29.19
7180;BME280;3631;42.152;24.756;2022-09-20T07:46:49;99467.16;;;29.79;27.17
7180;BME280;3631;42.152;24.756;2022-09-20T07:49:17;99466.56;;;30.87;25.54
7180;BME280;3631;42.152;24.756;2022-09-20T07:51:44;99475.97;;;30.36;25.80
7180;BME280;3631;42.152;24.756;2022-09-20T07:54:11;99476.28;;;28.43;27.59
7180;BME280;3631;42.152;24.756;2022-09-20T07:56:38;99472.97;;;27.09;29.65
7180;BME280;3631;42.152;24.756;2022-09-20T07:59:07;99462.78;;;25.36;31.46
7180;BME280;3631;42.152;24.756;2022-09-20T08:01:35;99464.53;;;23.84;33.69
7180;BME280;3631;42.152;24.756;2022-09-20T08:04:03;99455.63;;;22.78;35.34
7180;BME280;3631;42.152;24.756;2022-09-20T08:06:30;99441.19;;;22.16;36.77
7180;BME280;3631;42.152;24.756;2022-09-20T08:08:57;99447.44;;;21.68;37.76
7180;BME280;3631;42.152;24.756;2022-09-20T08:11:25;99433.19;;;21.47;38.18
7180;BME280;3631;42.152;24.756;2022-09-20T08:13:54;99443.06;;;21.56;38.53
7180;BME280;3631;42.152;24.756;2022-09-20T08:16:23;99444.84;;;21.56;38.71
7180;BME280;3631;42.152;24.756;2022-09-20T08:18:51;99444.09;;;20.95;39.49
7180;BME280;3631;42.152;24.756;2022-09-20T08:21:20;99433.63;;;20.70;39.79
7180;BME280;3631;42.152;24.756;2022-09-20T08:23:47;99431.81;;;20.70;40.26
7180;BME280;3631;42.152;24.756;2022-09-20T08:26:15;99433.16;;;20.52;40.98
7180;BME280;3631;42.152;24.756;2022-09-20T08:28:44;99409.53;;;20.25;41.29
7180;BME280;3631;42.152;24.756;2022-09-20T08:31:14;99418.91;;;20.29;41.61
7180;BME280;3631;42.152;24.756;2022-09-20T08:33:42;99417.63;;;20.22;40.88
7180;BME280;3631;42.152;24.756;2022-09-20T08:36:11;99413.13;;;19.99;41.28
7180;BME280;3631;42.152;24.756;2022-09-20T08:38:38;99422.19;;;20.20;41.35
7180;BME280;3631;42.152;24.756;2022-09-20T08:41:10;99407.72;;;20.25;41.34
7180;BME280;3631;42.152;24.756;2022-09-20T08:43:41;99407.31;;;20.44;41.15
7180;BME280;3631;42.152;24.756;2022-09-20T08:46:13;99405.78;;;20.89;40.55
7180;BME280;3631;42.152;24.756;2022-09-20T08:48:42;99414.38;;;21.04;39.81
7180;BME280;3631;42.152;24.756;2022-09-20T08:51:12;99392.56;;;21.26;39.51
7180;BME280;3631;42.152;24.756;2022-09-20T08:53:43;99389.94;;;21.13;39.13
7180;BME280;3631;42.152;24.756;2022-09-20T08:56:11;99395.31;;;21.24;39.21
7180;BME280;3631;42.152;24.756;2022-09-20T08:58:38;99391.75;;;21.13;39.27
7180;BME280;3631;42.152;24.756;2022-09-20T09:01:05;99394.72;;;21.21;38.84
7180;BME280;3631;42.152;24.756;2022-09-20T09:03:32;99388.75;;;21.30;38.06
7180;BME280;3631;42.152;24.756;2022-09-20T09:06:01;99385.38;;;21.28;38.43
7180;BME280;3631;42.152;24.756;2022-09-20T09:08:32;99388.41;;;21.46;37.72
7180;BME280;3631;42.152;24.756;2022-09-20T09:11:02;99388.75;;;21.30;37.06
7180;BME280;3631;42.152;24.756;2022-09-20T09:13:38;99383.47;;;21.30;37.37
7180;BME280;3631;42.152;24.756;2022-09-20T09:16:11;99376.28;;;21.32;37.63
7180;BME280;3631;42.152;24.756;2022-09-20T09:18:40;99369.78;;;21.36;46.04
7180;BME280;3631;42.152;24.756;2022-09-20T09:21:17;99373.78;;;21.42;38.12
7180;BME280;3631;42.152;24.756;2022-09-20T09:23:49;99367.78;;;21.51;37.66
7180;BME280;3631;42.152;24.756;2022-09-20T09:26:19;99364.81;;;21.55;37.39
7180;BME280;3631;42.152;24.756;2022-09-20T09:31:28;99366.47;;;21.56;37.89
7180;BME280;3631;42.152;24.756;2022-09-20T09:33:55;99361.56;;;21.63;37.55
7180;BME280;3631;42.152;24.756;2022-09-20T09:36:24;99363.59;;;21.59;38.01
7180;BME280;3631;42.152;24.756;2022-09-20T09:39:13;99360.63;;;21.64;37.49
7180;BME280;3631;42.152;24.756;2022-09-20T09:41:43;99354.72;;;21.60;36.57
7180;BME280;3631;42.152;24.756;2022-09-20T09:44:19;99360.53;;;21.77;37.09
7180;BME280;3631;42.152;24.756;2022-09-20T09:46:47;99358.84;;;21.76;36.67
7180;BME280;3631;42.152;24.756;2022-09-20T09:49:17;99353.78;;;21.72;36.69
7180;BME280;3631;42.152;24.756;2022-09-20T09:52:00;99364.00;;;21.66;36.46
7180;BME280;3631;42.152;24.756;2022-09-20T09:54:30;99353.44;;;21.66;36.66
7180;BME280;3631;42.152;24.756;2022-09-20T09:57:08;99352.59;;;21.65;36.81
7180;BME280;3631;42.152;24.756;2022-09-20T09:59:51;99357.13;;;21.63;37.10
7180;BME280;3631;42.152;24.756;2022-09-20T10:02:41;99354.00;;;21.69;36.73
7180;BME280;3631;42.152;24.756;2022-09-20T10:05:17;99307.53;;;21.56;36.45
7180;BME280;3631;42.152;24.756;2022-09-20T10:07:50;99341.66;;;21.92;36.43
7180;BME280;3631;42.152;24.756;2022-09-20T10:10:28;99340.81;;;21.81;35.80
7180;BME280;3631;42.152;24.756;2022-09-20T10:13:10;99348.63;;;21.93;35.25
7180;BME280;3631;42.152;24.756;2022-09-20T10:15:45;99345.16;;;21.93;36.12
7180;BME280;3631;42.152;24.756;2022-09-20T10:18:26;99338.47;;;22.11;35.79
7180;BME280;3631;42.152;24.756;2022-09-20T10:21:05;99345.16;;;22.15;35.06
7180;BME280;3631;42.152;24.756;2022-09-20T10:23:56;99334.59;;;22.26;35.52
7180;BME280;3631;42.152;24.756;2022-09-20T10:29:25;99331.50;;;22.10;35.71
7180;BME280;3631;42.152;24.756;2022-09-20T10:32:04;99321.75;;;22.11;35.85
7180;BME280;3631;42.152;24.756;2022-09-20T10:34:59;99337.34;;;22.14;35.71
7180;BME280;3631;42.152;24.756;2022-09-20T10:37:37;99319.47;;;22.06;35.47
7180;BME280;3631;42.152;24.756;2022-09-20T10:40:22;99320.53;;;22.03;35.13
7180;BME280;3631;42.152;24.756;2022-09-20T10:43:17;99320.94;;;21.99;35.07
7180;BME280;3631;42.152;24.756;2022-09-20T10:45:54;99327.50;;;22.04;35.72
7180;BME280;3631;42.152;24.756;2022-09-20T10:48:30;99304.09;;;22.00;35.95
7180;BME280;3631;42.152;24.756;2022-09-20T10:51:00;99321.34;;;22.26;35.59
7180;BME280;3631;42.152;24.756;2022-09-20T10:53:36;99310.22;;;22.23;34.88
7180;BME280;3631;42.152;24.756;2022-09-20T10:56:18;99320.06;;;22.09;35.39
7180;BME280;3631;42.152;24.756;2022-09-20T11:02:11;99303.34;;;21.98;35.38
7180;BME280;3631;42.152;24.756;2022-09-20T11:05:17;99287.97;;;21.81;35.24
7180;BME280;3631;42.152;24.756;2022-09-20T11:07:55;99281.84;;;21.91;36.04
7180;BME280;3631;42.152;24.756;2022-09-20T11:10:28;99299.25;;;21.94;35.49
7180;BME280;3631;42.152;24.756;2022-09-20T11:13:00;99297.56;;;21.82;35.74
7180;BME280;3631;42.152;24.756;2022-09-20T11:15:30;99281.25;;;21.77;36.55
7180;BME280;3631;42.152;24.756;2022-09-20T11:18:05;99286.78;;;21.73;37.20
7180;BME280;3631;42.152;24.756;2022-09-20T11:20:38;99286.44;;;21.67;36.96
7180;BME280;3631;42.152;24.756;2022-09-20T11:23:12;99279.19;;;21.58;36.47
7180;BME280;3631;42.152;24.756;2022-09-20T11:25:44;99286.28;;;21.57;36.10
7180;BME280;3631;42.152;24.756;2022-09-20T11:28:18;99280.66;;;21.51;36.11
7180;BME280;3631;42.152;24.756;2022-09-20T11:30:53;99281.94;;;21.56;35.90
7180;BME280;3631;42.152;24.756;2022-09-20T11:33:26;99274.88;;;21.57;35.25
7180;BME280;3631;42.152;24.756;2022-09-20T11:35:57;99274.53;;;21.50;35.64
7180;BME280;3631;42.152;24.756;2022-09-20T11:38:31;99272.59;;;21.52;35.36
7180;BME280;3631;42.152;24.756;2022-09-20T11:41:04;99273.78;;;21.48;35.57
7180;BME280;3631;42.152;24.756;2022-09-20T11:43:34;99258.69;;;21.50;35.91
7180;BME280;3631;42.152;24.756;2022-09-20T11:46:05;99269.59;;;21.46;35.58
7180;BME280;3631;42.152;24.756;2022-09-20T11:48:41;99267.56;;;21.49;34.53
7180;BME280;3631;42.152;24.756;2022-09-20T11:51:37;99259.16;;;21.33;34.88
7180;BME280;3631;42.152;24.756;2022-09-20T11:57:11;99243.56;;;21.41;36.09
7180;BME280;3631;42.152;24.756;2022-09-20T11:59:41;99239.97;;;21.42;35.29
7180;BME280;3631;42.152;24.756;2022-09-20T12:02:15;99250.53;;;21.42;34.63
7180;BME280;3631;42.152;24.756;2022-09-20T12:04:46;99248.84;;;21.41;35.29
7180;BME280;3631;42.152;24.756;2022-09-20T12:07:19;99242.59;;;21.42;35.03
7180;BME280;3631;42.152;24.756;2022-09-20T12:09:53;99254.59;;;21.46;35.17
7180;BME280;3631;42.152;24.756;2022-09-20T12:12:33;99249.31;;;21.46;34.74
7180;BME280;3631;42.152;24.756;2022-09-20T12:15:04;99244.13;;;21.45;35.49
7180;BME280;3631;42.152;24.756;2022-09-20T12:18:00;99247.88;;;21.42;35.40
7180;BME280;3631;42.152;24.756;2022-09-20T12:21:00;99252.44;;;21.40;34.20
7180;BME280;3631;42.152;24.756;2022-09-20T12:24:01;99246.66;;;21.35;34.13
7180;BME280;3631;42.152;24.756;2022-09-20T12:26:40;99246.75;;;21.33;34.32
7180;BME280;3631;42.152;24.756;2022-09-20T12:32:55;99256.66;;;21.43;34.36
7180;BME280;3631;42.152;24.756;2022-09-20T12:39:02;99245.69;;;21.47;34.87
7180;BME280;3631;42.152;24.756;2022-09-20T12:41:45;99248.00;;;21.41;34.56
7180;BME280;3631;42.152;24.756;2022-09-20T12:44:35;99242.81;;;21.28;35.07
7180;BME280;3631;42.152;24.756;2022-09-20T12:47:05;99234.28;;;21.24;35.19
7180;BME280;3631;42.152;24.756;2022-09-20T12:49:41;99232.16;;;21.29;35.19
7180;BME280;3631;42.152;24.756;2022-09-20T12:52:29;99233.72;;;21.32;34.95
7180;BME280;3631;42.152;24.756;2022-09-20T12:55:44;99226.50;;;21.34;34.36
7180;BME280;3631;42.152;24.756;2022-09-20T12:58:30;99222.88;;;21.35;34.79
7180;BME280;3631;42.152;24.756;2022-09-20T13:01:33;99230.22;;;21.31;34.79
7180;BME280;3631;42.152;24.756;2022-09-20T13:04:38;99220.25;;;21.24;34.23
7180;BME280;3631;42.152;24.756;2022-09-20T13:07:39;99218.31;;;21.26;34.67
7180;BME280;3631;42.152;24.756;2022-09-20T13:10:20;99216.66;;;21.25;34.53
7180;BME280;3631;42.152;24.756;2022-09-20T13:12:55;99214.63;;;21.28;34.29
7180;BME280;3631;42.152;24.756;2022-09-20T13:15:23;99219.78;;;21.30;33.00
7180;BME280;3631;42.152;24.756;2022-09-20T13:17:52;99220.00;;;21.27;33.15
7180;BME280;3631;42.152;24.756;2022-09-20T13:20:23;99221.94;;;21.25;32.70
7180;BME280;3631;42.152;24.756;2022-09-20T13:22:52;99219.78;;;21.30;33.08
7180;BME280;3631;42.152;24.756;2022-09-20T13:25:20;99215.34;;;21.30;33.62
7180;BME280;3631;42.152;24.756;2022-09-20T13:27:50;99220.50;;;21.32;33.83
7180;BME280;3631;42.152;24.756;2022-09-20T13:30:25;99222.31;;;21.31;34.01
7180;BME280;3631;42.152;24.756;2022-09-20T13:32:52;99216.06;;;21.32;33.79
7180;BME280;3631;42.152;24.756;2022-09-20T13:35:21;99224.94;;;21.31;33.55
7180;BME280;3631;42.152;24.756;2022-09-20T13:37:51;99224.94;;;21.31;34.06
7180;BME280;3631;42.152;24.756;2022-09-20T13:40:21;99230.22;;;21.31;34.37
7180;BME280;3631;42.152;24.756;2022-09-20T13:42:50;99228.28;;;21.33;34.56
7180;BME280;3631;42.152;24.756;2022-09-20T13:45:19;99223.84;;;21.34;34.47
7180;BME280;3631;42.152;24.756;2022-09-20T13:47:54;99218.56;;;21.34;34.73
7180;BME280;3631;42.152;24.756;2022-09-20T13:50:33;99220.50;;;21.32;34.95
7180;BME280;3631;42.152;24.756;2022-09-20T13:53:13;99233.44;;;21.35;34.87
7180;BME280;3631;42.152;24.756;2022-09-20T13:55:41;99227.72;;;21.30;33.68
7180;BME280;3631;42.152;24.756;2022-09-20T13:58:17;99198.13;;;21.02;33.66
7180;BME280;3631;42.152;24.756;2022-09-20T14:00:47;99232.97;;;21.19;33.96
7180;BME280;3631;42.152;24.756;2022-09-20T14:03:17;99198.22;;;20.90;33.99
7180;BME280;3631;42.152;24.756;2022-09-20T14:05:46;99222.94;;;21.11;34.33
7180;BME280;3631;42.152;24.756;2022-09-20T14:08:20;99232.66;;;21.11;34.01
7180;BME280;3631;42.152;24.756;2022-09-20T14:10:49;99235.31;;;21.11;33.97
7180;BME280;3631;42.152;24.756;2022-09-20T14:13:29;99234.81;;;21.06;34.06
7180;BME280;3631;42.152;24.756;2022-09-20T14:15:58;99233.03;;;21.06;34.31
7180;BME280;3631;42.152;24.756;2022-09-20T14:18:27;99233.03;;;21.06;34.30
7180;BME280;3631;42.152;24.756;2022-09-20T14:20:54;99234.59;;;21.09;34.11
7180;BME280;3631;42.152;24.756;2022-09-20T14:23:24;99218.50;;;21.00;34.68
7180;BME280;3631;42.152;24.756;2022-09-20T14:29:28;99228.09;;;21.01;33.99
7180;BME280;3631;42.152;24.756;2022-09-20T14:31:57;99218.13;;;20.94;34.49